Terminal Aerodrome Forecast
Issued by NWS

Home | Current Version | Previous Version | Text Only | Print | Product List | Glossary On
Versions: 1 2 3 4 5 6 7 8 9 10 11 12 13 14 15 16 17 18 19
000
FTAK31 PAJN 290600 AAB
TAFAKT
TAF AMD
PAKT 290648Z 2907/3006 14009KT P6SM -RA BKN015 OVC045
     FM290800 14012G20KT P6SM -RA BKN020 OVC040
     FM291200 14015G25KT 6SM -RA SCT010 OVC020
     FM291700 14012G20KT 5SM -SHRA OVC030 PROB30 2919/2921 TS
      OVC030CB
     FM292100 14010G16KT 5SM -SHRA OVC030 PROB30 2921/3002 TS
      OVC030CB
     FM300200 14008KT 6SM -SHRA OVC030 PROB30 3002/3006 TS OVC030CB
      AMD LTD TO CLD VIS AND WIND 2906/2915=

USA.gov is the U.S. government's official web portal to all federal, state and local government web resources and services.